createdAt,value
2022-11-01T00:01:19.416Z,13.15
2022-11-01T00:06:16.051Z,13.18
2022-11-01T00:11:16.228Z,13.23
2022-11-01T00:16:13.435Z,13.28
2022-11-01T00:21:11.704Z,13.27
2022-11-01T00:26:08.181Z,13.28
2022-11-01T00:31:06.595Z,13.24
2022-11-01T00:36:06.246Z,13.17
2022-11-01T00:41:03.981Z,13.23
2022-11-01T00:46:01.319Z,13.17
2022-11-01T00:50:57.844Z,13.16
2022-11-01T00:55:59.831Z,13.25
2022-11-01T01:00:56.322Z,13.18
2022-11-01T01:05:53.963Z,13.10
2022-11-01T01:10:50.732Z,13.07
2022-11-01T01:15:47.906Z,13.00
2022-11-01T01:20:44.934Z,13.10
2022-11-01T01:25:42.303Z,13.15
2022-11-01T01:30:41.796Z,13.20
2022-11-01T01:35:38.912Z,13.39
2022-11-01T01:40:35.577Z,13.35
2022-11-01T01:45:36.860Z,13.40
2022-11-01T01:50:38.324Z,13.45
2022-11-01T01:55:40.603Z,13.49
2022-11-01T02:00:37.740Z,13.61
2022-11-01T02:05:44.004Z,13.64
2022-11-01T02:10:41.136Z,13.65
2022-11-01T02:15:47.218Z,13.68
2022-11-01T02:20:53.494Z,13.76
2022-11-01T02:26:25.500Z,13.79
2022-11-01T02:31:43.942Z,13.81
2022-11-01T02:36:46.798Z,13.81
2022-11-01T02:41:56.186Z,13.83
2022-11-01T02:47:01.335Z,13.93
2022-11-01T02:51:59.723Z,13.92
2022-11-01T02:56:59.852Z,13.82
2022-11-01T03:01:56.258Z,13.81
2022-11-01T03:06:59.188Z,13.79
2022-11-01T03:12:20.381Z,13.89
2022-11-01T03:17:32.592Z,13.83
2022-11-01T03:22:30.857Z,13.91
2022-11-01T03:27:33.542Z,13.84
2022-11-01T03:32:38.643Z,13.84
2022-11-01T03:37:38.746Z,13.83
2022-11-01T03:42:37.854Z,13.91
2022-11-01T03:47:34.705Z,13.92
2022-11-01T03:52:31.125Z,13.98
2022-11-01T03:57:27.483Z,13.95
2022-11-01T04:02:23.865Z,14.11
2022-11-01T04:07:20.256Z,14.04
2022-11-01T04:12:16.636Z,14.10
2022-11-01T04:17:31.800Z,14.07
2022-11-01T04:22:28.237Z,14.09
2022-11-01T04:27:24.765Z,14.11
2022-11-01T04:32:21.147Z,14.08
2022-11-01T04:37:17.503Z,14.09
2022-11-01T04:42:13.935Z,14.15
2022-11-01T04:47:10.291Z,14.13
2022-11-01T04:52:07.443Z,14.02
2022-11-01T04:57:04.441Z,14.23
2022-11-01T05:02:01.084Z,14.14
2022-11-01T05:06:58.795Z,14.21
2022-11-01T05:11:55.206Z,14.17
2022-11-01T05:16:54.841Z,14.23
2022-11-01T05:21:51.966Z,14.23
2022-11-01T05:26:49.809Z,14.22
2022-11-01T05:31:46.812Z,14.15
2022-11-01T05:36:43.200Z,14.10
2022-11-01T05:41:40.732Z,14.16
2022-11-01T05:46:37.179Z,14.13
2022-11-01T05:51:33.527Z,14.16
2022-11-01T05:56:30.013Z,14.09
2022-11-01T06:01:26.515Z,14.17
2022-11-01T06:06:22.890Z,14.18
2022-11-01T06:11:19.329Z,14.11
2022-11-01T06:16:15.740Z,14.19
2022-11-01T06:21:12.087Z,14.19
2022-11-01T06:26:08.512Z,14.17
2022-11-01T06:36:02.973Z,14.25
2022-11-01T06:40:59.356Z,14.35
2022-11-01T06:45:59.274Z,14.39
2022-11-01T06:50:55.968Z,14.34
2022-11-01T06:55:52.410Z,14.29
2022-11-01T07:00:48.808Z,14.50
2022-11-01T07:05:45.297Z,14.64
2022-11-01T07:10:43.079Z,14.70
2022-11-01T07:15:40.236Z,14.84
2022-11-01T07:20:41.972Z,15.04
2022-11-01T07:25:38.875Z,15.17
2022-11-01T07:30:35.648Z,15.21
2022-11-01T07:35:32.369Z,15.31
2022-11-01T07:40:28.944Z,15.35
2022-11-01T07:45:27.231Z,15.40
2022-11-01T07:50:23.601Z,15.43
2022-11-01T07:55:19.972Z,15.58
2022-11-01T08:00:16.454Z,15.71
2022-11-01T08:05:12.955Z,15.64
2022-11-01T08:10:11.674Z,15.76
2022-11-01T08:15:09.890Z,15.73
2022-11-01T08:20:07.109Z,15.71
2022-11-01T08:25:03.736Z,15.65
2022-11-01T08:30:00.449Z,15.56
2022-11-01T08:34:56.846Z,15.35
2022-11-01T08:39:53.284Z,15.17
2022-11-01T08:44:49.929Z,15.00
2022-11-01T08:49:46.297Z,14.84
2022-11-01T08:54:42.726Z,14.76
2022-11-01T08:59:39.076Z,14.65
2022-11-01T09:04:35.441Z,14.59
2022-11-01T09:09:32.009Z,14.76
2022-11-01T09:14:28.468Z,14.80
2022-11-01T09:19:24.915Z,14.92
2022-11-01T09:24:21.488Z,14.92
2022-11-01T09:29:18.948Z,14.94
2022-11-01T09:34:15.355Z,15.16
2022-11-01T09:39:13.075Z,15.11
2022-11-01T09:44:16.139Z,15.05
2022-11-01T09:49:21.174Z,15.06
2022-11-01T09:54:21.722Z,15.13
2022-11-01T09:59:59.379Z,15.19
2022-11-01T10:05:21.369Z,15.34
2022-11-01T10:10:39.827Z,15.20
2022-11-01T10:16:04.020Z,15.19
2022-11-01T10:21:04.980Z,15.20
2022-11-01T10:26:02.778Z,15.37
2022-11-01T10:31:04.643Z,15.30
2022-11-01T10:36:18.568Z,15.38
2022-11-01T10:41:31.183Z,15.41
2022-11-01T10:46:32.098Z,15.58
2022-11-01T10:51:30.816Z,15.59
2022-11-01T10:56:41.806Z,15.52
2022-11-01T11:01:44.235Z,15.56
2022-11-01T11:06:42.321Z,15.64
2022-11-01T11:11:42.418Z,15.54
2022-11-01T11:16:47.873Z,15.65
2022-11-01T11:21:46.503Z,15.80
2022-11-01T11:26:43.426Z,15.59
2022-11-01T11:31:40.609Z,15.75
2022-11-01T11:36:42.252Z,16.00
2022-11-01T11:41:39.681Z,15.87
2022-11-01T11:46:36.096Z,15.67
2022-11-01T11:51:37.382Z,15.77
2022-11-01T11:56:33.868Z,15.69
2022-11-01T12:01:31.548Z,15.71
2022-11-01T12:06:30.015Z,15.64
2022-11-01T12:11:39.459Z,15.78
2022-11-01T12:16:42.605Z,15.73
2022-11-01T12:21:42.957Z,15.84
2022-11-01T12:26:41.214Z,15.85
2022-11-01T12:31:41.142Z,15.84
2022-11-01T12:36:44.693Z,15.94
2022-11-01T12:41:49.898Z,15.88
2022-11-01T12:46:53.268Z,15.89
2022-11-01T12:51:54.701Z,15.96
2022-11-01T12:56:54.101Z,16.07
2022-11-01T13:02:22.897Z,16.15
2022-11-01T13:07:44.517Z,16.26
2022-11-01T13:12:56.664Z,16.14
2022-11-01T13:18:15.484Z,16.16
2022-11-01T13:23:35.515Z,16.13
2022-11-01T13:28:52.490Z,16.14
2022-11-01T13:33:52.347Z,16.06
2022-11-01T13:38:59.905Z,15.99
2022-11-01T13:44:06.502Z,15.98
2022-11-01T13:49:08.967Z,15.96
2022-11-01T13:54:27.159Z,15.87
2022-11-01T13:59:45.001Z,15.81
2022-11-01T14:04:54.044Z,15.81
2022-11-01T14:09:54.550Z,15.83
2022-11-01T14:14:52.706Z,15.91
2022-11-01T14:20:01.604Z,15.91
2022-11-01T14:25:00.724Z,15.85
2022-11-01T14:29:57.067Z,15.78
2022-11-01T14:35:01.944Z,15.60
2022-11-01T14:40:18.915Z,15.63
2022-11-01T14:45:42.163Z,15.53
2022-11-01T14:51:08.015Z,15.40
2022-11-01T14:56:17.029Z,15.36
2022-11-01T15:01:13.512Z,15.31
2022-11-01T15:06:24.378Z,15.20
2022-11-01T15:11:20.735Z,15.11
2022-11-01T15:16:23.118Z,15.06
2022-11-01T15:21:25.605Z,14.94
2022-11-01T15:26:28.178Z,14.78
2022-11-01T15:31:25.068Z,14.65
2022-11-01T15:36:26.857Z,14.53
2022-11-01T15:41:30.714Z,14.33
2022-11-01T15:46:32.900Z,14.15
2022-11-01T15:51:30.421Z,13.79
2022-11-01T15:56:40.727Z,13.77
2022-11-01T16:01:38.022Z,13.63
2022-11-01T16:06:46.406Z,13.50
2022-11-01T16:11:44.405Z,13.25
2022-11-01T16:16:57.229Z,13.16
2022-11-01T16:21:53.543Z,12.98
2022-11-01T16:26:54.488Z,12.74
2022-11-01T16:32:09.978Z,12.48
2022-11-01T16:37:19.541Z,12.44
2022-11-01T16:42:17.224Z,12.19
2022-11-01T16:47:16.796Z,11.92
2022-11-01T16:52:13.104Z,11.70
2022-11-01T16:57:27.685Z,11.58
2022-11-01T17:02:29.956Z,11.68
2022-11-01T17:07:27.543Z,11.57
2022-11-01T17:12:24.156Z,11.50
2022-11-01T17:17:24.433Z,11.38
2022-11-01T17:22:28.473Z,11.13
2022-11-01T17:27:24.810Z,10.85
2022-11-01T17:32:21.131Z,10.87
2022-11-01T17:37:17.563Z,11.00
2022-11-01T17:42:13.856Z,11.16
2022-11-01T17:47:15.002Z,11.03
2022-11-01T17:52:11.296Z,10.88
2022-11-01T17:57:07.615Z,10.78
2022-11-01T18:02:04.101Z,10.77
2022-11-01T18:07:02.883Z,10.72
2022-11-01T18:12:25.488Z,10.78
2022-11-01T18:17:53.919Z,10.77
2022-11-01T18:22:55.872Z,10.75
2022-11-01T18:27:55.165Z,10.77
2022-11-01T18:33:20.806Z,10.67
2022-11-01T18:38:26.210Z,10.64
2022-11-01T18:43:23.503Z,10.54
2022-11-01T18:48:25.473Z,10.45
2022-11-01T18:53:21.772Z,10.36
2022-11-01T18:58:22.240Z,10.35
2022-11-01T19:03:24.001Z,10.16
2022-11-01T19:08:24.514Z,10.10
2022-11-01T19:13:34.336Z,10.12
2022-11-01T19:18:30.862Z,10.13
2022-11-01T19:23:37.661Z,10.05
2022-11-01T19:28:38.274Z,10.25
2022-11-01T19:33:37.653Z,10.30
2022-11-01T19:38:34.526Z,10.20
2022-11-01T19:43:32.455Z,10.18
2022-11-01T19:48:30.520Z,10.17
2022-11-01T19:53:30.928Z,10.08
2022-11-01T19:58:39.149Z,9.98
2022-11-01T20:03:40.917Z,10.06
2022-11-01T20:08:37.289Z,10.01
2022-11-01T20:13:33.839Z,10.11
2022-11-01T20:18:30.376Z,10.06
2022-11-01T20:23:27.364Z,9.76
2022-11-01T20:28:23.932Z,9.74
2022-11-01T20:33:20.302Z,9.72
2022-11-01T20:38:16.783Z,9.70
2022-11-01T20:43:13.500Z,9.67
2022-11-01T20:48:09.880Z,9.67
2022-11-01T20:53:06.693Z,9.54
2022-11-01T20:58:03.998Z,9.43
2022-11-01T21:03:04.422Z,9.35
2022-11-01T21:08:10.307Z,9.29
2022-11-01T21:13:30.075Z,9.38
2022-11-01T21:18:33.821Z,9.28
2022-11-01T21:23:37.065Z,9.37
2022-11-01T21:28:42.073Z,9.31
2022-11-01T21:33:43.772Z,9.26
2022-11-01T21:38:41.615Z,9.31
2022-11-01T21:43:37.986Z,9.40
2022-11-01T21:48:34.384Z,9.40
2022-11-01T21:53:30.717Z,9.48
2022-11-01T21:58:27.064Z,9.60
2022-11-01T22:03:23.473Z,9.56
2022-11-01T22:08:19.817Z,9.44
2022-11-01T22:13:16.233Z,9.42
2022-11-01T22:18:12.613Z,9.59
2022-11-01T22:23:08.968Z,9.59
2022-11-01T22:28:07.014Z,9.61
2022-11-01T22:33:05.823Z,9.59
2022-11-01T22:38:17.233Z,9.60
2022-11-01T22:43:16.659Z,9.54
2022-11-01T22:48:18.577Z,9.53
2022-11-01T22:53:18.565Z,9.42
2022-11-01T22:58:31.989Z,9.54
2022-11-01T23:03:31.603Z,9.57
2022-11-01T23:08:32.007Z,9.65
2022-11-01T23:13:49.954Z,9.61
2022-11-01T23:18:46.351Z,9.68
2022-11-01T23:23:44.711Z,9.80
2022-11-01T23:28:55.588Z,9.94
2022-11-01T23:33:52.231Z,10.06
2022-11-01T23:38:52.318Z,10.15
2022-11-01T23:43:50.664Z,10.26
2022-11-01T23:48:48.135Z,10.19
2022-11-01T23:53:46.978Z,10.17
2022-11-01T23:58:43.340Z,10.17
